createdAt,value
2023-05-12T00:03:31.401Z,93957.00
2023-05-12T00:07:34.817Z,93960.00
2023-05-12T00:11:41.846Z,93952.00
2023-05-12T00:15:45.141Z,93957.00
2023-05-12T00:19:48.776Z,93958.00
2023-05-12T00:23:52.242Z,93954.00
2023-05-12T00:27:57.104Z,93961.00
2023-05-12T00:32:00.533Z,93954.00
2023-05-12T00:36:04.408Z,93946.00
2023-05-12T00:40:09.482Z,93948.00
2023-05-12T00:44:14.706Z,93948.00
2023-05-12T00:48:18.344Z,93947.00
2023-05-12T00:52:22.098Z,93948.00
2023-05-12T00:56:26.503Z,93940.00
2023-05-12T01:00:31.406Z,93958.00
2023-05-12T01:04:35.365Z,93957.00
2023-05-12T01:08:42.768Z,93957.00
2023-05-12T01:12:46.685Z,93954.00
2023-05-12T01:16:54.390Z,93945.00
2023-05-12T01:20:58.358Z,93942.00
2023-05-12T01:25:04.996Z,93954.00
2023-05-12T01:29:10.609Z,93950.00
2023-05-12T01:33:14.349Z,93957.00
2023-05-12T01:37:18.169Z,93963.00
2023-05-12T01:41:22.163Z,93954.00
2023-05-12T01:45:26.875Z,93952.00
2023-05-12T01:49:30.542Z,93952.00
2023-05-12T01:53:34.013Z,93959.00
2023-05-12T01:57:37.549Z,93962.00
2023-05-12T02:01:42.792Z,93970.00
2023-05-12T02:05:47.738Z,93967.00
2023-05-12T02:09:51.408Z,93965.00
2023-05-12T02:13:55.605Z,93967.00
2023-05-12T02:18:03.830Z,93973.00
2023-05-12T02:22:07.192Z,93971.00
2023-05-12T02:26:11.618Z,93974.00
2023-05-12T02:30:15.799Z,93961.00
2023-05-12T02:34:22.616Z,93973.00
2023-05-12T02:38:26.713Z,93970.00
2023-05-12T02:42:35.686Z,93976.00
2023-05-12T02:46:39.348Z,93976.00
2023-05-12T02:50:51.174Z,93970.00
2023-05-12T02:54:54.559Z,93965.00
2023-05-12T02:58:58.219Z,93971.00
2023-05-12T03:03:01.803Z,93965.00
2023-05-12T03:07:07.240Z,93967.00
2023-05-12T03:11:11.332Z,93966.00
2023-05-12T03:15:15.306Z,93966.00
2023-05-12T03:19:22.055Z,93963.00
2023-05-12T03:23:28.004Z,93966.00
2023-05-12T03:27:33.262Z,93962.00
2023-05-12T03:31:37.124Z,93963.00
2023-05-12T03:35:41.598Z,93970.00
2023-05-12T03:39:46.435Z,93952.00
2023-05-12T03:43:51.309Z,93964.00
2023-05-12T03:47:54.644Z,93962.00
2023-05-12T03:51:58.591Z,93961.00
2023-05-12T03:56:07.620Z,93972.00
2023-05-12T04:00:12.179Z,93955.00
2023-05-12T04:04:22.678Z,93968.00
2023-05-12T04:08:31.503Z,93973.00
2023-05-12T04:12:36.535Z,93966.00
2023-05-12T04:16:40.956Z,93976.00
2023-05-12T04:20:44.379Z,93977.00
2023-05-12T04:24:49.431Z,93970.00
2023-05-12T04:28:54.698Z,93986.00
2023-05-12T04:32:59.125Z,93980.00
2023-05-12T04:37:02.865Z,93996.00
2023-05-12T04:41:07.147Z,93995.00
2023-05-12T04:45:13.375Z,93999.00
2023-05-12T04:49:17.673Z,93998.00
2023-05-12T04:53:21.083Z,93993.00
2023-05-12T04:57:26.844Z,94001.00
2023-05-12T05:01:32.927Z,93997.00
2023-05-12T05:05:36.515Z,93996.00
2023-05-12T05:09:39.985Z,93997.00
2023-05-12T05:13:43.658Z,93994.00
2023-05-12T05:17:49.831Z,94004.00
2023-05-12T05:21:54.802Z,93993.00
2023-05-12T05:25:58.140Z,93988.00
2023-05-12T05:30:02.183Z,93998.00
2023-05-12T05:34:08.194Z,94008.00
2023-05-12T05:38:13.214Z,94014.00
2023-05-12T05:42:16.791Z,94020.00
2023-05-12T05:46:20.497Z,94008.00
2023-05-12T05:50:26.540Z,94016.00
2023-05-12T05:54:30.302Z,94016.00
2023-05-12T05:58:35.431Z,94010.00
2023-05-12T06:02:40.887Z,94026.00
2023-05-12T06:06:47.320Z,94017.00
2023-05-12T06:10:50.897Z,94037.00
2023-05-12T06:14:55.601Z,94039.00
2023-05-12T06:18:59.012Z,94028.00
2023-05-12T06:23:05.701Z,94046.00
2023-05-12T06:27:09.003Z,94036.00
2023-05-12T06:31:12.723Z,94031.00
2023-05-12T06:35:16.191Z,94043.00
2023-05-12T06:39:22.182Z,94040.00
2023-05-12T06:43:25.805Z,94030.00
2023-05-12T06:47:31.683Z,94047.00
2023-05-12T06:51:35.467Z,94048.00
2023-05-12T06:55:43.338Z,94038.00
2023-05-12T06:59:46.647Z,94040.00
2023-05-12T07:03:50.030Z,94036.00
2023-05-12T07:07:54.561Z,94030.00
2023-05-12T07:12:00.896Z,94039.00
2023-05-12T07:16:29.962Z,94018.00
2023-05-12T07:20:33.447Z,94029.00
2023-05-12T07:24:38.589Z,94026.00
2023-05-12T07:28:43.572Z,94027.00
2023-05-12T07:32:49.293Z,94024.00
2023-05-12T07:36:52.920Z,94032.00
2023-05-12T07:40:56.985Z,94036.00
2023-05-12T07:45:01.745Z,94037.00
2023-05-12T07:49:05.369Z,94049.00
2023-05-12T07:53:08.748Z,94046.00
2023-05-12T07:57:12.281Z,94044.00
2023-05-12T08:01:17.632Z,94057.00
2023-05-12T08:05:21.656Z,94049.00
2023-05-12T08:09:25.158Z,94041.00
2023-05-12T08:13:28.452Z,94055.00
2023-05-12T08:17:33.330Z,94052.00
2023-05-12T08:21:36.586Z,94060.00
2023-05-12T08:25:48.470Z,94057.00
2023-05-12T08:29:51.780Z,94051.00
2023-05-12T08:34:09.066Z,94072.00
2023-05-12T08:38:13.772Z,94053.00
2023-05-12T08:42:29.601Z,94061.00
2023-05-12T08:46:33.455Z,94066.00
2023-05-12T08:50:45.888Z,94053.00
2023-05-12T08:54:55.959Z,94064.00
2023-05-12T08:59:01.081Z,94072.00
2023-05-12T09:03:07.394Z,94064.00
2023-05-12T09:07:12.804Z,94076.00
2023-05-12T09:11:17.614Z,94069.00
2023-05-12T09:15:28.713Z,94063.00
2023-05-12T09:19:32.763Z,94068.00
2023-05-12T09:23:39.753Z,94071.00
2023-05-12T09:27:43.035Z,94070.00
2023-05-12T09:31:53.637Z,94086.00
2023-05-12T09:35:56.886Z,94088.00
2023-05-12T09:40:06.424Z,94077.00
2023-05-12T09:44:11.034Z,94087.00
2023-05-12T09:48:15.538Z,94090.00
2023-05-12T09:52:22.733Z,94092.00
2023-05-12T09:56:31.579Z,94087.00
2023-05-12T10:00:52.392Z,94085.00
2023-05-12T10:05:04.657Z,94092.00
2023-05-12T10:09:20.282Z,94097.00
2023-05-12T10:13:26.410Z,94097.00
2023-05-12T10:17:33.224Z,94083.00
2023-05-12T10:21:39.725Z,94101.00
2023-05-12T10:25:46.107Z,94095.00
2023-05-12T10:29:53.558Z,94091.00
2023-05-12T10:33:58.892Z,94094.00
2023-05-12T10:38:10.064Z,94102.00
2023-05-12T10:42:13.318Z,94104.00
2023-05-12T10:46:24.412Z,94109.00
2023-05-12T10:50:29.234Z,94110.00
2023-05-12T10:54:40.923Z,94117.00
2023-05-12T10:59:09.326Z,94114.00
2023-05-12T11:03:17.352Z,94117.00
2023-05-12T11:07:24.684Z,94135.00
2023-05-12T11:11:30.105Z,94130.00
2023-05-12T11:15:33.640Z,94134.00
2023-05-12T11:19:40.649Z,94132.00
2023-05-12T11:23:43.877Z,94129.00
2023-05-12T11:27:51.774Z,94128.00
2023-05-12T11:31:55.724Z,94124.00
2023-05-12T11:36:06.071Z,94125.00
2023-05-12T11:40:19.446Z,94151.00
2023-05-12T11:44:24.191Z,94139.00
2023-05-12T11:48:35.120Z,94154.00
2023-05-12T11:52:40.597Z,94143.00
2023-05-12T11:56:49.776Z,94151.00
2023-05-12T12:00:53.248Z,94160.00
2023-05-12T12:04:58.700Z,94158.00
2023-05-12T12:09:03.543Z,94141.00
2023-05-12T12:13:07.256Z,94156.00
2023-05-12T12:17:10.538Z,94169.00
2023-05-12T12:21:13.949Z,94172.00
2023-05-12T12:25:19.886Z,94164.00
2023-05-12T12:29:26.304Z,94164.00
2023-05-12T12:33:30.587Z,94160.00
2023-05-12T12:37:35.607Z,94173.00
2023-05-12T12:41:41.816Z,94165.00
2023-05-12T12:45:45.495Z,94160.00
2023-05-12T12:49:48.853Z,94180.00
2023-05-12T12:53:52.365Z,94178.00
2023-05-12T12:57:57.140Z,94189.00
2023-05-12T13:02:03.436Z,94178.00
2023-05-12T13:06:14.150Z,94182.00
2023-05-12T13:10:17.866Z,94178.00
2023-05-12T13:14:23.091Z,94176.00
2023-05-12T13:18:26.480Z,94184.00
2023-05-12T13:22:29.874Z,94169.00
2023-05-12T13:26:33.337Z,94166.00
2023-05-12T13:30:40.194Z,94171.00
2023-05-12T13:34:43.628Z,94178.00
2023-05-12T13:38:48.069Z,94179.00
2023-05-12T13:42:51.310Z,94179.00
2023-05-12T13:46:57.281Z,94185.00
2023-05-12T13:51:00.589Z,94184.00
2023-05-12T13:55:05.304Z,94184.00
2023-05-12T13:59:09.838Z,94206.00
2023-05-12T14:03:14.840Z,94189.00
2023-05-12T14:07:21.991Z,94195.00
2023-05-12T14:11:25.339Z,94198.00
2023-05-12T14:15:44.284Z,94197.00
2023-05-12T14:19:52.342Z,94197.00
2023-05-12T14:24:20.544Z,94195.00
2023-05-12T14:28:24.261Z,94202.00
2023-05-12T14:32:28.591Z,94199.00
2023-05-12T14:36:33.379Z,94210.00
2023-05-12T14:40:38.507Z,94208.00
2023-05-12T14:44:43.617Z,94208.00
2023-05-12T14:48:49.165Z,94217.00
2023-05-12T14:52:53.883Z,94221.00
2023-05-12T14:57:00.701Z,94223.00
2023-05-12T15:01:04.411Z,94228.00
2023-05-12T15:05:09.723Z,94226.00
2023-05-12T15:09:14.440Z,94222.00
2023-05-12T15:13:21.441Z,94228.00
2023-05-12T15:17:25.083Z,94214.00
2023-05-12T15:21:29.526Z,94214.00
2023-05-12T15:25:34.343Z,94217.00
2023-05-12T15:29:39.893Z,94211.00
2023-05-12T15:33:43.221Z,94213.00
2023-05-12T15:37:46.782Z,94217.00
2023-05-12T15:41:51.606Z,94221.00
2023-05-12T15:45:55.139Z,94216.00
2023-05-12T15:49:58.344Z,94215.00
2023-05-12T15:54:01.978Z,94213.00
2023-05-12T15:58:08.400Z,94217.00
2023-05-12T16:02:12.159Z,94213.00
2023-05-12T16:06:15.711Z,94217.00
2023-05-12T16:10:19.694Z,94211.00
2023-05-12T16:14:25.562Z,94212.00
2023-05-12T16:18:31.993Z,94206.00
2023-05-12T16:22:35.450Z,94195.00
2023-05-12T16:26:40.986Z,94201.00
2023-05-12T16:30:46.165Z,94197.00
2023-05-12T16:34:49.836Z,94203.00
2023-05-12T16:38:53.573Z,94196.00
2023-05-12T16:42:57.311Z,94188.00
2023-05-12T16:47:02.124Z,94191.00
2023-05-12T16:51:08.901Z,94196.00
2023-05-12T16:55:12.465Z,94208.00
2023-05-12T16:59:17.221Z,94202.00
2023-05-12T17:03:23.449Z,94199.00
2023-05-12T17:07:27.164Z,94197.00
2023-05-12T17:11:31.753Z,94201.00
2023-05-12T17:15:35.135Z,94201.00
2023-05-12T17:19:42.042Z,94198.00
2023-05-12T17:23:45.875Z,94204.00
2023-05-12T17:27:52.351Z,94203.00
2023-05-12T17:31:55.741Z,94217.00
2023-05-12T17:36:12.234Z,94215.00
2023-05-12T17:40:18.009Z,94214.00
2023-05-12T17:44:23.634Z,94222.00
2023-05-12T17:48:27.000Z,94214.00
2023-05-12T17:52:32.945Z,94222.00
2023-05-12T17:56:36.714Z,94224.00
2023-05-12T18:00:40.173Z,94210.00
2023-05-12T18:04:43.748Z,94224.00
2023-05-12T18:08:48.725Z,94224.00
2023-05-12T18:12:53.671Z,94214.00
2023-05-12T18:17:07.770Z,94219.00
2023-05-12T18:21:12.598Z,94216.00
2023-05-12T18:25:17.497Z,94221.00
2023-05-12T18:29:20.876Z,94221.00
2023-05-12T18:33:24.348Z,94217.00
2023-05-12T18:37:28.857Z,94230.00
2023-05-12T18:41:34.778Z,94229.00
2023-05-12T18:45:38.315Z,94235.00
2023-05-12T18:49:41.938Z,94232.00
2023-05-12T18:53:45.275Z,94233.00
2023-05-12T18:57:50.211Z,94240.00
2023-05-12T19:01:53.667Z,94228.00
2023-05-12T19:05:57.273Z,94238.00
2023-05-12T19:10:01.452Z,94239.00
2023-05-12T19:14:07.086Z,94240.00
2023-05-12T19:18:11.432Z,94239.00
2023-05-12T19:22:14.666Z,94251.00
2023-05-12T19:26:18.197Z,94246.00
2023-05-12T19:30:25.393Z,94252.00
2023-05-12T19:34:31.714Z,94259.00
2023-05-12T19:38:35.199Z,94247.00
2023-05-12T19:42:46.259Z,94252.00
2023-05-12T19:46:53.386Z,94254.00
2023-05-12T19:50:56.803Z,94256.00
2023-05-12T19:55:00.626Z,94262.00
2023-05-12T19:59:04.780Z,94265.00
2023-05-12T20:03:11.904Z,94259.00
2023-05-12T20:07:15.384Z,94256.00
2023-05-12T20:11:18.844Z,94257.00
2023-05-12T20:15:22.834Z,94250.00
2023-05-12T20:19:39.204Z,94256.00
2023-05-12T20:23:45.720Z,94244.00
2023-05-12T20:27:49.430Z,94252.00
2023-05-12T20:31:53.523Z,94237.00
2023-05-12T20:36:00.452Z,94245.00
2023-05-12T20:40:05.454Z,94243.00
2023-05-12T20:44:09.097Z,94242.00
2023-05-12T20:48:12.459Z,94241.00
2023-05-12T20:52:17.219Z,94246.00
2023-05-12T20:56:22.765Z,94249.00
2023-05-12T21:00:26.212Z,94248.00
2023-05-12T21:04:29.575Z,94244.00
2023-05-12T21:08:34.426Z,94249.00
2023-05-12T21:12:37.728Z,94241.00
2023-05-12T21:16:41.117Z,94247.00
2023-05-12T21:20:44.454Z,94233.00
2023-05-12T21:24:51.063Z,94242.00
2023-05-12T21:28:54.966Z,94247.00
2023-05-12T21:32:59.422Z,94237.00
2023-05-12T21:37:02.760Z,94241.00
2023-05-12T21:41:07.674Z,94232.00
2023-05-12T21:45:11.394Z,94247.00
2023-05-12T21:49:14.852Z,94239.00
2023-05-12T21:53:18.163Z,94243.00
2023-05-12T21:57:23.088Z,94237.00
2023-05-12T22:01:26.510Z,94250.00
2023-05-12T22:05:29.945Z,94232.00
2023-05-12T22:09:34.468Z,94235.00
2023-05-12T22:13:39.212Z,94241.00
2023-05-12T22:17:46.102Z,94231.00
2023-05-12T22:21:49.982Z,94239.00
2023-05-12T22:25:54.623Z,94238.00
2023-05-12T22:29:59.323Z,94230.00
2023-05-12T22:34:02.616Z,94231.00
2023-05-12T22:38:05.959Z,94227.00
2023-05-12T22:42:34.292Z,94239.00
2023-05-12T22:46:38.969Z,94231.00
2023-05-12T22:50:42.306Z,94228.00
2023-05-12T22:54:45.581Z,94228.00
2023-05-12T22:58:48.894Z,94234.00
2023-05-12T23:02:55.003Z,94231.00
2023-05-12T23:06:58.340Z,94231.00
2023-05-12T23:11:01.922Z,94236.00
2023-05-12T23:15:05.446Z,94231.00
2023-05-12T23:19:10.160Z,94241.00
2023-05-12T23:23:13.409Z,94234.00
2023-05-12T23:27:17.803Z,94232.00
2023-05-12T23:31:21.122Z,94237.00
2023-05-12T23:35:27.365Z,94232.00
2023-05-12T23:39:30.759Z,94226.00
2023-05-12T23:43:34.134Z,94230.00
2023-05-12T23:47:37.792Z,94229.00
2023-05-12T23:51:42.665Z,94229.00
2023-05-12T23:55:45.945Z,94214.00
2023-05-12T23:59:50.299Z,94218.00
